sensor_id;sensor_type;location;lat;lon;timestamp;P1;durP1;ratioP1;P2;durP2;ratioP2
5483;SDS011;2764;48.794;8.326;2022-09-09T00:00:19;3.23;;;1.53;;
5483;SDS011;2764;48.794;8.326;2022-09-09T00:02:38;2.40;;;1.60;;
5483;SDS011;2764;48.794;8.326;2022-09-09T00:03:47;3.27;;;1.47;;
5483;SDS011;2764;48.794;8.326;2022-09-09T00:04:58;3.63;;;1.30;;
5483;SDS011;2764;48.794;8.326;2022-09-09T00:06:11;7.27;;;1.40;;
5483;SDS011;2764;48.794;8.326;2022-09-09T00:07:27;5.40;;;1.40;;
5483;SDS011;2764;48.794;8.326;2022-09-09T00:11:39;6.17;;;1.60;;
5483;SDS011;2764;48.794;8.326;2022-09-09T00:13:53;4.67;;;1.60;;
5483;SDS011;2764;48.794;8.326;2022-09-09T00:16:12;5.30;;;1.63;;
5483;SDS011;2764;48.794;8.326;2022-09-09T00:18:57;3.33;;;1.27;;
5483;SDS011;2764;48.794;8.326;2022-09-09T00:20:16;11.40;;;3.07;;
5483;SDS011;2764;48.794;8.326;2022-09-09T00:21:21;10.80;;;2.87;;
5483;SDS011;2764;48.794;8.326;2022-09-09T00:22:34;6.20;;;2.80;;
5483;SDS011;2764;48.794;8.326;2022-09-09T00:23:38;8.57;;;2.70;;
5483;SDS011;2764;48.794;8.326;2022-09-09T00:25:50;8.17;;;2.17;;
5483;SDS011;2764;48.794;8.326;2022-09-09T00:27:06;8.53;;;3.20;;
5483;SDS011;2764;48.794;8.326;2022-09-09T00:28:22;6.20;;;2.27;;
5483;SDS011;2764;48.794;8.326;2022-09-09T00:30:44;11.10;;;3.20;;
5483;SDS011;2764;48.794;8.326;2022-09-09T00:31:51;8.53;;;2.50;;
5483;SDS011;2764;48.794;8.326;2022-09-09T00:33:05;5.57;;;2.50;;
5483;SDS011;2764;48.794;8.326;2022-09-09T00:34:18;5.77;;;1.70;;
5483;SDS011;2764;48.794;8.326;2022-09-09T00:35:24;5.30;;;2.13;;
5483;SDS011;2764;48.794;8.326;2022-09-09T00:36:29;15.87;;;1.63;;
5483;SDS011;2764;48.794;8.326;2022-09-09T00:37:34;1.57;;;1.17;;
5483;SDS011;2764;48.794;8.326;2022-09-09T00:38:38;3.90;;;1.07;;
5483;SDS011;2764;48.794;8.326;2022-09-09T00:39:44;3.70;;;1.13;;
5483;SDS011;2764;48.794;8.326;2022-09-09T00:43:29;1.80;;;0.80;;
5483;SDS011;2764;48.794;8.326;2022-09-09T00:44:32;2.60;;;1.37;;
5483;SDS011;2764;48.794;8.326;2022-09-09T00:55:58;4.97;;;1.30;;
5483;SDS011;2764;48.794;8.326;2022-09-09T00:57:31;5.00;;;1.30;;
5483;SDS011;2764;48.794;8.326;2022-09-09T00:58:35;2.53;;;0.70;;
5483;SDS011;2764;48.794;8.326;2022-09-09T01:03:47;3.67;;;1.00;;
5483;SDS011;2764;48.794;8.326;2022-09-09T01:04:55;3.53;;;1.30;;
5483;SDS011;2764;48.794;8.326;2022-09-09T01:07:33;3.93;;;1.23;;
5483;SDS011;2764;48.794;8.326;2022-09-09T01:09:58;2.90;;;1.20;;
5483;SDS011;2764;48.794;8.326;2022-09-09T01:11:05;3.33;;;1.03;;
5483;SDS011;2764;48.794;8.326;2022-09-09T01:12:16;4.73;;;1.13;;
5483;SDS011;2764;48.794;8.326;2022-09-09T01:13:28;4.60;;;2.07;;
5483;SDS011;2764;48.794;8.326;2022-09-09T01:15:38;3.87;;;1.23;;
5483;SDS011;2764;48.794;8.326;2022-09-09T01:16:42;5.10;;;1.63;;
5483;SDS011;2764;48.794;8.326;2022-09-09T01:19:14;2.50;;;0.80;;
5483;SDS011;2764;48.794;8.326;2022-09-09T01:20:26;3.33;;;1.20;;
5483;SDS011;2764;48.794;8.326;2022-09-09T01:21:48;7.10;;;1.57;;
5483;SDS011;2764;48.794;8.326;2022-09-09T01:24:34;8.50;;;1.60;;
5483;SDS011;2764;48.794;8.326;2022-09-09T01:27:06;4.90;;;1.53;;
5483;SDS011;2764;48.794;8.326;2022-09-09T01:28:11;6.83;;;1.93;;
5483;SDS011;2764;48.794;8.326;2022-09-09T01:29:18;5.57;;;1.47;;
5483;SDS011;2764;48.794;8.326;2022-09-09T01:30:22;10.57;;;1.70;;
5483;SDS011;2764;48.794;8.326;2022-09-09T01:31:28;5.60;;;1.63;;
5483;SDS011;2764;48.794;8.326;2022-09-09T01:32:49;7.40;;;2.03;;
5483;SDS011;2764;48.794;8.326;2022-09-09T01:33:52;9.33;;;1.73;;
5483;SDS011;2764;48.794;8.326;2022-09-09T01:34:54;4.00;;;1.43;;
5483;SDS011;2764;48.794;8.326;2022-09-09T01:36:00;9.97;;;1.90;;
5483;SDS011;2764;48.794;8.326;2022-09-09T01:37:09;5.43;;;1.70;;
5483;SDS011;2764;48.794;8.326;2022-09-09T01:38:13;9.00;;;2.13;;
5483;SDS011;2764;48.794;8.326;2022-09-09T01:39:15;3.43;;;1.60;;
5483;SDS011;2764;48.794;8.326;2022-09-09T01:40:18;6.00;;;1.73;;
5483;SDS011;2764;48.794;8.326;2022-09-09T01:41:20;3.67;;;1.60;;
5483;SDS011;2764;48.794;8.326;2022-09-09T01:42:22;7.83;;;1.93;;
5483;SDS011;2764;48.794;8.326;2022-09-09T01:43:24;2.03;;;1.70;;
5483;SDS011;2764;48.794;8.326;2022-09-09T01:44:26;3.63;;;1.20;;
5483;SDS011;2764;48.794;8.326;2022-09-09T01:45:29;7.53;;;1.93;;
5483;SDS011;2764;48.794;8.326;2022-09-09T01:46:32;10.90;;;1.77;;
5483;SDS011;2764;48.794;8.326;2022-09-09T01:47:34;1.60;;;1.40;;
5483;SDS011;2764;48.794;8.326;2022-09-09T01:48:37;5.87;;;2.10;;
5483;SDS011;2764;48.794;8.326;2022-09-09T01:49:40;7.13;;;1.30;;
5483;SDS011;2764;48.794;8.326;2022-09-09T01:50:42;5.43;;;1.83;;
5483;SDS011;2764;48.794;8.326;2022-09-09T01:51:44;9.70;;;1.77;;
5483;SDS011;2764;48.794;8.326;2022-09-09T01:52:52;4.67;;;1.70;;
5483;SDS011;2764;48.794;8.326;2022-09-09T01:53:59;6.97;;;1.50;;
5483;SDS011;2764;48.794;8.326;2022-09-09T01:55:03;6.83;;;1.70;;
5483;SDS011;2764;48.794;8.326;2022-09-09T01:56:18;6.40;;;2.10;;
5483;SDS011;2764;48.794;8.326;2022-09-09T01:57:50;3.53;;;2.33;;
5483;SDS011;2764;48.794;8.326;2022-09-09T01:59:07;11.37;;;2.70;;
5483;SDS011;2764;48.794;8.326;2022-09-09T02:00:11;2.30;;;2.10;;
5483;SDS011;2764;48.794;8.326;2022-09-09T02:02:03;3.83;;;1.93;;
5483;SDS011;2764;48.794;8.326;2022-09-09T02:02:48;8.57;;;2.27;;
5483;SDS011;2764;48.794;8.326;2022-09-09T02:04:03;6.00;;;2.50;;
5483;SDS011;2764;48.794;8.326;2022-09-09T02:05:33;11.57;;;3.30;;
5483;SDS011;2764;48.794;8.326;2022-09-09T02:06:38;7.13;;;2.90;;
5483;SDS011;2764;48.794;8.326;2022-09-09T02:07:42;11.27;;;2.90;;
5483;SDS011;2764;48.794;8.326;2022-09-09T02:08:59;11.67;;;3.03;;
5483;SDS011;2764;48.794;8.326;2022-09-09T02:10:12;4.17;;;3.10;;
5483;SDS011;2764;48.794;8.326;2022-09-09T02:11:36;13.33;;;2.73;;
5483;SDS011;2764;48.794;8.326;2022-09-09T02:12:40;12.00;;;2.90;;
5483;SDS011;2764;48.794;8.326;2022-09-09T02:13:46;2.70;;;2.30;;
5483;SDS011;2764;48.794;8.326;2022-09-09T02:14:51;6.17;;;2.93;;
5483;SDS011;2764;48.794;8.326;2022-09-09T02:15:58;4.97;;;2.50;;
5483;SDS011;2764;48.794;8.326;2022-09-09T02:17:07;5.40;;;2.90;;
5483;SDS011;2764;48.794;8.326;2022-09-09T02:18:12;6.83;;;3.00;;
5483;SDS011;2764;48.794;8.326;2022-09-09T02:19:23;7.87;;;2.93;;
5483;SDS011;2764;48.794;8.326;2022-09-09T02:20:28;10.80;;;3.40;;
5483;SDS011;2764;48.794;8.326;2022-09-09T02:21:36;8.63;;;3.23;;
5483;SDS011;2764;48.794;8.326;2022-09-09T02:22:38;6.53;;;3.57;;
5483;SDS011;2764;48.794;8.326;2022-09-09T02:23:43;3.60;;;3.10;;
5483;SDS011;2764;48.794;8.326;2022-09-09T02:24:48;6.57;;;2.77;;
5483;SDS011;2764;48.794;8.326;2022-09-09T02:25:55;6.93;;;3.87;;
5483;SDS011;2764;48.794;8.326;2022-09-09T02:27:01;7.30;;;3.10;;
5483;SDS011;2764;48.794;8.326;2022-09-09T02:28:08;5.93;;;2.70;;
5483;SDS011;2764;48.794;8.326;2022-09-09T02:29:14;6.70;;;3.07;;
5483;SDS011;2764;48.794;8.326;2022-09-09T02:30:18;15.03;;;3.20;;
5483;SDS011;2764;48.794;8.326;2022-09-09T02:31:22;10.07;;;2.90;;
5483;SDS011;2764;48.794;8.326;2022-09-09T02:32:26;7.57;;;2.90;;
5483;SDS011;2764;48.794;8.326;2022-09-09T02:33:36;6.97;;;2.80;;
5483;SDS011;2764;48.794;8.326;2022-09-09T02:34:45;10.60;;;2.90;;
5483;SDS011;2764;48.794;8.326;2022-09-09T02:35:51;8.07;;;3.57;;
5483;SDS011;2764;48.794;8.326;2022-09-09T02:36:55;7.70;;;3.07;;
5483;SDS011;2764;48.794;8.326;2022-09-09T02:38:01;5.83;;;3.13;;
5483;SDS011;2764;48.794;8.326;2022-09-09T02:39:09;7.77;;;3.40;;
5483;SDS011;2764;48.794;8.326;2022-09-09T02:40:13;5.83;;;3.27;;
5483;SDS011;2764;48.794;8.326;2022-09-09T02:41:23;10.93;;;3.40;;
5483;SDS011;2764;48.794;8.326;2022-09-09T02:42:29;5.70;;;3.50;;
5483;SDS011;2764;48.794;8.326;2022-09-09T02:43:32;8.67;;;3.70;;
5483;SDS011;2764;48.794;8.326;2022-09-09T02:44:34;10.60;;;3.63;;
5483;SDS011;2764;48.794;8.326;2022-09-09T02:45:41;12.80;;;3.80;;
5483;SDS011;2764;48.794;8.326;2022-09-09T02:50:45;8.83;;;3.20;;
5483;SDS011;2764;48.794;8.326;2022-09-09T02:52:00;11.53;;;3.77;;
5483;SDS011;2764;48.794;8.326;2022-09-09T02:54:21;4.77;;;2.80;;
5483;SDS011;2764;48.794;8.326;2022-09-09T02:55:39;7.10;;;2.97;;
5483;SDS011;2764;48.794;8.326;2022-09-09T02:56:51;6.73;;;2.20;;
5483;SDS011;2764;48.794;8.326;2022-09-09T02:57:57;3.50;;;1.73;;
5483;SDS011;2764;48.794;8.326;2022-09-09T02:59:02;5.70;;;1.97;;
5483;SDS011;2764;48.794;8.326;2022-09-09T03:00:06;3.57;;;2.00;;
5483;SDS011;2764;48.794;8.326;2022-09-09T03:01:08;6.60;;;2.00;;
5483;SDS011;2764;48.794;8.326;2022-09-09T03:02:11;4.10;;;2.17;;
5483;SDS011;2764;48.794;8.326;2022-09-09T03:03:14;4.60;;;1.80;;
5483;SDS011;2764;48.794;8.326;2022-09-09T03:04:17;6.67;;;1.73;;
5483;SDS011;2764;48.794;8.326;2022-09-09T03:05:20;2.90;;;2.20;;
5483;SDS011;2764;48.794;8.326;2022-09-09T03:06:22;2.43;;;2.20;;
5483;SDS011;2764;48.794;8.326;2022-09-09T03:07:24;4.20;;;2.00;;
5483;SDS011;2764;48.794;8.326;2022-09-09T03:08:26;6.00;;;2.23;;
5483;SDS011;2764;48.794;8.326;2022-09-09T03:09:29;7.20;;;1.83;;
5483;SDS011;2764;48.794;8.326;2022-09-09T03:10:32;6.50;;;2.10;;
5483;SDS011;2764;48.794;8.326;2022-09-09T03:11:34;8.37;;;2.70;;
5483;SDS011;2764;48.794;8.326;2022-09-09T03:12:36;6.27;;;2.50;;
5483;SDS011;2764;48.794;8.326;2022-09-09T03:13:38;11.17;;;2.57;;
5483;SDS011;2764;48.794;8.326;2022-09-09T03:14:40;3.93;;;2.00;;
5483;SDS011;2764;48.794;8.326;2022-09-09T03:15:42;2.70;;;2.13;;
5483;SDS011;2764;48.794;8.326;2022-09-09T03:16:44;11.03;;;3.10;;
5483;SDS011;2764;48.794;8.326;2022-09-09T03:17:49;4.30;;;2.27;;
5483;SDS011;2764;48.794;8.326;2022-09-09T03:18:51;5.53;;;2.27;;
5483;SDS011;2764;48.794;8.326;2022-09-09T03:19:53;8.27;;;2.03;;
5483;SDS011;2764;48.794;8.326;2022-09-09T03:20:56;5.47;;;2.63;;
5483;SDS011;2764;48.794;8.326;2022-09-09T03:21:59;7.67;;;2.50;;
5483;SDS011;2764;48.794;8.326;2022-09-09T03:23:01;9.80;;;2.83;;
5483;SDS011;2764;48.794;8.326;2022-09-09T03:24:04;10.67;;;3.17;;
5483;SDS011;2764;48.794;8.326;2022-09-09T03:25:06;4.67;;;2.50;;
5483;SDS011;2764;48.794;8.326;2022-09-09T03:26:08;6.33;;;2.50;;
5483;SDS011;2764;48.794;8.326;2022-09-09T03:27:10;8.17;;;2.40;;
5483;SDS011;2764;48.794;8.326;2022-09-09T03:28:11;3.73;;;2.27;;
5483;SDS011;2764;48.794;8.326;2022-09-09T03:29:13;8.20;;;2.93;;
5483;SDS011;2764;48.794;8.326;2022-09-09T03:30:15;4.73;;;2.03;;
5483;SDS011;2764;48.794;8.326;2022-09-09T03:31:17;2.70;;;1.70;;
5483;SDS011;2764;48.794;8.326;2022-09-09T03:32:23;6.40;;;2.30;;
5483;SDS011;2764;48.794;8.326;2022-09-09T03:33:27;4.97;;;2.10;;
5483;SDS011;2764;48.794;8.326;2022-09-09T03:34:30;6.20;;;2.07;;
5483;SDS011;2764;48.794;8.326;2022-09-09T03:35:32;4.40;;;1.80;;
5483;SDS011;2764;48.794;8.326;2022-09-09T03:36:35;6.80;;;2.20;;
5483;SDS011;2764;48.794;8.326;2022-09-09T03:37:37;2.33;;;1.73;;
5483;SDS011;2764;48.794;8.326;2022-09-09T03:38:40;6.47;;;2.10;;
5483;SDS011;2764;48.794;8.326;2022-09-09T03:39:43;1.90;;;1.67;;
5483;SDS011;2764;48.794;8.326;2022-09-09T03:40:52;7.10;;;1.83;;
5483;SDS011;2764;48.794;8.326;2022-09-09T03:41:56;3.83;;;1.67;;
5483;SDS011;2764;48.794;8.326;2022-09-09T03:42:58;3.80;;;1.60;;
5483;SDS011;2764;48.794;8.326;2022-09-09T03:44:00;3.47;;;2.07;;
5483;SDS011;2764;48.794;8.326;2022-09-09T03:45:06;2.37;;;1.60;;
5483;SDS011;2764;48.794;8.326;2022-09-09T03:46:11;6.80;;;2.00;;
5483;SDS011;2764;48.794;8.326;2022-09-09T03:47:13;6.73;;;1.77;;
5483;SDS011;2764;48.794;8.326;2022-09-09T03:48:16;1.73;;;1.47;;
5483;SDS011;2764;48.794;8.326;2022-09-09T03:49:20;4.87;;;1.83;;
5483;SDS011;2764;48.794;8.326;2022-09-09T03:50:23;6.97;;;1.67;;
5483;SDS011;2764;48.794;8.326;2022-09-09T03:51:24;2.93;;;1.50;;
5483;SDS011;2764;48.794;8.326;2022-09-09T03:52:27;1.67;;;1.10;;
5483;SDS011;2764;48.794;8.326;2022-09-09T03:53:29;6.27;;;1.70;;
5483;SDS011;2764;48.794;8.326;2022-09-09T03:54:31;3.63;;;1.40;;
5483;SDS011;2764;48.794;8.326;2022-09-09T03:55:33;3.67;;;1.60;;
5483;SDS011;2764;48.794;8.326;2022-09-09T03:56:34;3.07;;;1.70;;
5483;SDS011;2764;48.794;8.326;2022-09-09T03:57:36;11.57;;;2.20;;
5483;SDS011;2764;48.794;8.326;2022-09-09T03:58:39;6.50;;;2.10;;
5483;SDS011;2764;48.794;8.326;2022-09-09T03:59:41;6.70;;;1.77;;
5483;SDS011;2764;48.794;8.326;2022-09-09T04:00:43;7.93;;;2.10;;
5483;SDS011;2764;48.794;8.326;2022-09-09T04:01:46;5.17;;;2.10;;
5483;SDS011;2764;48.794;8.326;2022-09-09T04:02:48;3.43;;;1.50;;
5483;SDS011;2764;48.794;8.326;2022-09-09T04:03:51;3.43;;;1.70;;
5483;SDS011;2764;48.794;8.326;2022-09-09T04:04:53;9.00;;;2.03;;
5483;SDS011;2764;48.794;8.326;2022-09-09T04:05:57;3.93;;;1.80;;
5483;SDS011;2764;48.794;8.326;2022-09-09T04:07:03;3.90;;;1.70;;
5483;SDS011;2764;48.794;8.326;2022-09-09T04:08:08;3.63;;;2.00;;
5483;SDS011;2764;48.794;8.326;2022-09-09T04:09:11;4.10;;;1.60;;
5483;SDS011;2764;48.794;8.326;2022-09-09T04:10:12;4.60;;;1.63;;
5483;SDS011;2764;48.794;8.326;2022-09-09T04:11:15;3.03;;;1.50;;
5483;SDS011;2764;48.794;8.326;2022-09-09T04:12:18;2.77;;;1.57;;
5483;SDS011;2764;48.794;8.326;2022-09-09T04:13:19;10.73;;;1.87;;
5483;SDS011;2764;48.794;8.326;2022-09-09T04:14:22;2.13;;;1.70;;
5483;SDS011;2764;48.794;8.326;2022-09-09T04:15:23;3.43;;;1.70;;
5483;SDS011;2764;48.794;8.326;2022-09-09T04:16:25;9.50;;;1.83;;
5483;SDS011;2764;48.794;8.326;2022-09-09T04:17:27;4.30;;;1.47;;
5483;SDS011;2764;48.794;8.326;2022-09-09T04:18:29;8.97;;;2.20;;
5483;SDS011;2764;48.794;8.326;2022-09-09T04:19:32;5.97;;;2.17;;
5483;SDS011;2764;48.794;8.326;2022-09-09T04:20:34;10.67;;;2.90;;
5483;SDS011;2764;48.794;8.326;2022-09-09T04:21:38;5.70;;;1.90;;
5483;SDS011;2764;48.794;8.326;2022-09-09T04:22:41;6.10;;;2.17;;
5483;SDS011;2764;48.794;8.326;2022-09-09T04:23:42;13.83;;;1.97;;
5483;SDS011;2764;48.794;8.326;2022-09-09T04:24:44;7.00;;;1.97;;
5483;SDS011;2764;48.794;8.326;2022-09-09T04:25:53;6.10;;;1.60;;
5483;SDS011;2764;48.794;8.326;2022-09-09T04:26:56;12.93;;;2.60;;
5483;SDS011;2764;48.794;8.326;2022-09-09T04:27:57;6.43;;;1.70;;
5483;SDS011;2764;48.794;8.326;2022-09-09T04:28:59;5.90;;;1.57;;
5483;SDS011;2764;48.794;8.326;2022-09-09T04:30:02;4.53;;;2.20;;
5483;SDS011;2764;48.794;8.326;2022-09-09T04:31:05;7.17;;;1.80;;
5483;SDS011;2764;48.794;8.326;2022-09-09T04:32:13;17.23;;;2.10;;
5483;SDS011;2764;48.794;8.326;2022-09-09T04:33:15;6.40;;;2.30;;
5483;SDS011;2764;48.794;8.326;2022-09-09T04:34:18;8.00;;;2.77;;
5483;SDS011;2764;48.794;8.326;2022-09-09T04:35:20;5.03;;;2.43;;
5483;SDS011;2764;48.794;8.326;2022-09-09T04:36:22;11.83;;;2.60;;
5483;SDS011;2764;48.794;8.326;2022-09-09T04:37:24;7.83;;;2.03;;
5483;SDS011;2764;48.794;8.326;2022-09-09T04:38:26;5.47;;;1.90;;
5483;SDS011;2764;48.794;8.326;2022-09-09T04:39:28;6.27;;;2.20;;
5483;SDS011;2764;48.794;8.326;2022-09-09T04:40:30;6.60;;;2.03;;
5483;SDS011;2764;48.794;8.326;2022-09-09T04:41:32;5.93;;;2.10;;
5483;SDS011;2764;48.794;8.326;2022-09-09T04:42:37;9.67;;;2.90;;
5483;SDS011;2764;48.794;8.326;2022-09-09T04:43:39;10.33;;;2.30;;
5483;SDS011;2764;48.794;8.326;2022-09-09T04:44:40;10.33;;;2.40;;
5483;SDS011;2764;48.794;8.326;2022-09-09T04:45:42;9.30;;;2.67;;
5483;SDS011;2764;48.794;8.326;2022-09-09T04:46:48;4.70;;;2.60;;
5483;SDS011;2764;48.794;8.326;2022-09-09T04:47:50;9.37;;;2.17;;
5483;SDS011;2764;48.794;8.326;2022-09-09T04:48:52;12.50;;;1.80;;
5483;SDS011;2764;48.794;8.326;2022-09-09T04:49:55;5.07;;;2.40;;
5483;SDS011;2764;48.794;8.326;2022-09-09T04:50:58;14.27;;;2.40;;
5483;SDS011;2764;48.794;8.326;2022-09-09T04:52:01;5.40;;;2.07;;
5483;SDS011;2764;48.794;8.326;2022-09-09T04:53:04;5.53;;;2.60;;
5483;SDS011;2764;48.794;8.326;2022-09-09T04:54:06;7.47;;;2.30;;
5483;SDS011;2764;48.794;8.326;2022-09-09T04:55:08;3.80;;;2.17;;
5483;SDS011;2764;48.794;8.326;2022-09-09T04:56:11;8.83;;;2.30;;
5483;SDS011;2764;48.794;8.326;2022-09-09T04:57:15;9.53;;;2.20;;
5483;SDS011;2764;48.794;8.326;2022-09-09T04:58:19;7.10;;;1.80;;
5483;SDS011;2764;48.794;8.326;2022-09-09T04:59:23;2.27;;;1.83;;
5483;SDS011;2764;48.794;8.326;2022-09-09T05:00:26;7.73;;;2.27;;
5483;SDS011;2764;48.794;8.326;2022-09-09T05:01:28;9.20;;;2.17;;
5483;SDS011;2764;48.794;8.326;2022-09-09T05:02:30;9.27;;;1.90;;
5483;SDS011;2764;48.794;8.326;2022-09-09T05:03:34;8.93;;;1.80;;
5483;SDS011;2764;48.794;8.326;2022-09-09T05:04:39;11.93;;;2.47;;
5483;SDS011;2764;48.794;8.326;2022-09-09T05:05:40;2.47;;;2.07;;
5483;SDS011;2764;48.794;8.326;2022-09-09T05:06:42;3.33;;;2.00;;
5483;SDS011;2764;48.794;8.326;2022-09-09T05:07:44;5.90;;;2.13;;
5483;SDS011;2764;48.794;8.326;2022-09-09T05:08:45;4.80;;;1.93;;
5483;SDS011;2764;48.794;8.326;2022-09-09T05:09:47;5.40;;;2.30;;
5483;SDS011;2764;48.794;8.326;2022-09-09T05:10:52;7.00;;;2.00;;
5483;SDS011;2764;48.794;8.326;2022-09-09T05:11:54;6.50;;;2.70;;
5483;SDS011;2764;48.794;8.326;2022-09-09T05:12:56;4.60;;;2.30;;
5483;SDS011;2764;48.794;8.326;2022-09-09T05:13:57;23.97;;;2.93;;
5483;SDS011;2764;48.794;8.326;2022-09-09T05:14:59;4.20;;;2.03;;
5483;SDS011;2764;48.794;8.326;2022-09-09T05:16:01;2.30;;;2.10;;
5483;SDS011;2764;48.794;8.326;2022-09-09T05:17:03;5.23;;;1.80;;
5483;SDS011;2764;48.794;8.326;2022-09-09T05:18:05;3.40;;;2.20;;
5483;SDS011;2764;48.794;8.326;2022-09-09T05:19:06;8.80;;;2.80;;
5483;SDS011;2764;48.794;8.326;2022-09-09T05:20:10;4.27;;;2.03;;
5483;SDS011;2764;48.794;8.326;2022-09-09T05:21:18;7.30;;;2.33;;
5483;SDS011;2764;48.794;8.326;2022-09-09T05:22:22;5.70;;;2.23;;
5483;SDS011;2764;48.794;8.326;2022-09-09T05:23:24;7.10;;;2.03;;
5483;SDS011;2764;48.794;8.326;2022-09-09T05:24:27;8.80;;;2.50;;
5483;SDS011;2764;48.794;8.326;2022-09-09T05:25:28;7.17;;;2.40;;
5483;SDS011;2764;48.794;8.326;2022-09-09T05:26:31;2.63;;;2.10;;
5483;SDS011;2764;48.794;8.326;2022-09-09T05:27:33;9.10;;;2.50;;
5483;SDS011;2764;48.794;8.326;2022-09-09T05:28:37;5.57;;;2.30;;
5483;SDS011;2764;48.794;8.326;2022-09-09T05:29:40;6.97;;;2.00;;
5483;SDS011;2764;48.794;8.326;2022-09-09T05:30:44;7.30;;;2.03;;
5483;SDS011;2764;48.794;8.326;2022-09-09T05:31:46;7.70;;;2.03;;
5483;SDS011;2764;48.794;8.326;2022-09-09T05:32:51;8.60;;;2.20;;
5483;SDS011;2764;48.794;8.326;2022-09-09T05:33:55;3.03;;;2.20;;
5483;SDS011;2764;48.794;8.326;2022-09-09T05:34:57;5.27;;;1.93;;
5483;SDS011;2764;48.794;8.326;2022-09-09T05:36:01;10.13;;;2.03;;
5483;SDS011;2764;48.794;8.326;2022-09-09T05:37:05;2.00;;;1.80;;
5483;SDS011;2764;48.794;8.326;2022-09-09T05:38:08;8.63;;;2.20;;
5483;SDS011;2764;48.794;8.326;2022-09-09T05:39:09;9.07;;;2.07;;
5483;SDS011;2764;48.794;8.326;2022-09-09T05:40:13;3.40;;;1.93;;
5483;SDS011;2764;48.794;8.326;2022-09-09T05:41:16;4.00;;;1.50;;
5483;SDS011;2764;48.794;8.326;2022-09-09T05:42:19;8.07;;;1.97;;
5483;SDS011;2764;48.794;8.326;2022-09-09T05:43:23;3.23;;;1.90;;
5483;SDS011;2764;48.794;8.326;2022-09-09T05:44:25;4.47;;;1.40;;
5483;SDS011;2764;48.794;8.326;2022-09-09T05:45:29;4.03;;;2.00;;
5483;SDS011;2764;48.794;8.326;2022-09-09T05:46:31;10.23;;;1.83;;
5483;SDS011;2764;48.794;8.326;2022-09-09T05:47:33;5.47;;;2.10;;
5483;SDS011;2764;48.794;8.326;2022-09-09T05:48:36;9.30;;;2.00;;
5483;SDS011;2764;48.794;8.326;2022-09-09T05:49:42;7.20;;;2.00;;
5483;SDS011;2764;48.794;8.326;2022-09-09T05:50:52;7.30;;;2.33;;
5483;SDS011;2764;48.794;8.326;2022-09-09T05:51:54;5.87;;;1.80;;
5483;SDS011;2764;48.794;8.326;2022-09-09T05:52:56;1.53;;;1.20;;
5483;SDS011;2764;48.794;8.326;2022-09-09T05:54:00;7.60;;;2.67;;
5483;SDS011;2764;48.794;8.326;2022-09-09T05:55:02;6.17;;;1.90;;
5483;SDS011;2764;48.794;8.326;2022-09-09T05:56:07;9.70;;;2.47;;
5483;SDS011;2764;48.794;8.326;2022-09-09T05:57:16;9.20;;;1.77;;
5483;SDS011;2764;48.794;8.326;2022-09-09T05:58:20;2.30;;;1.40;;
5483;SDS011;2764;48.794;8.326;2022-09-09T05:59:24;6.17;;;1.40;;
5483;SDS011;2764;48.794;8.326;2022-09-09T06:00:26;6.60;;;1.63;;
5483;SDS011;2764;48.794;8.326;2022-09-09T06:01:30;4.60;;;1.20;;
5483;SDS011;2764;48.794;8.326;2022-09-09T06:02:34;10.60;;;1.70;;
5483;SDS011;2764;48.794;8.326;2022-09-09T06:03:39;10.67;;;2.10;;
5483;SDS011;2764;48.794;8.326;2022-09-09T06:04:42;8.97;;;1.60;;
5483;SDS011;2764;48.794;8.326;2022-09-09T06:05:45;6.07;;;1.50;;
5483;SDS011;2764;48.794;8.326;2022-09-09T06:06:47;2.37;;;1.43;;
5483;SDS011;2764;48.794;8.326;2022-09-09T06:07:52;7.40;;;1.70;;
5483;SDS011;2764;48.794;8.326;2022-09-09T06:08:55;5.97;;;1.67;;
5483;SDS011;2764;48.794;8.326;2022-09-09T06:10:01;6.27;;;1.70;;
5483;SDS011;2764;48.794;8.326;2022-09-09T06:11:03;5.97;;;1.40;;
5483;SDS011;2764;48.794;8.326;2022-09-09T06:12:06;12.50;;;1.87;;
5483;SDS011;2764;48.794;8.326;2022-09-09T06:13:09;8.10;;;1.80;;
5483;SDS011;2764;48.794;8.326;2022-09-09T06:14:12;5.67;;;2.10;;
5483;SDS011;2764;48.794;8.326;2022-09-09T06:15:14;2.97;;;1.90;;
5483;SDS011;2764;48.794;8.326;2022-09-09T06:16:17;4.70;;;1.50;;
5483;SDS011;2764;48.794;8.326;2022-09-09T06:17:20;11.03;;;2.10;;
5483;SDS011;2764;48.794;8.326;2022-09-09T06:18:22;4.83;;;1.77;;
5483;SDS011;2764;48.794;8.326;2022-09-09T06:19:24;6.77;;;1.50;;
5483;SDS011;2764;48.794;8.326;2022-09-09T06:20:27;2.90;;;1.47;;
5483;SDS011;2764;48.794;8.326;2022-09-09T06:21:32;3.83;;;1.90;;
5483;SDS011;2764;48.794;8.326;2022-09-09T06:22:39;2.93;;;1.50;;
5483;SDS011;2764;48.794;8.326;2022-09-09T06:23:42;2.60;;;1.63;;
5483;SDS011;2764;48.794;8.326;2022-09-09T06:24:46;4.10;;;1.60;;
5483;SDS011;2764;48.794;8.326;2022-09-09T06:25:48;4.40;;;1.70;;
5483;SDS011;2764;48.794;8.326;2022-09-09T06:26:50;3.00;;;1.33;;
5483;SDS011;2764;48.794;8.326;2022-09-09T06:27:52;3.00;;;1.30;;
5483;SDS011;2764;48.794;8.326;2022-09-09T06:28:54;3.60;;;1.30;;
5483;SDS011;2764;48.794;8.326;2022-09-09T06:29:56;6.10;;;1.80;;
5483;SDS011;2764;48.794;8.326;2022-09-09T06:30:59;7.43;;;2.10;;
5483;SDS011;2764;48.794;8.326;2022-09-09T06:32:02;4.93;;;1.67;;
5483;SDS011;2764;48.794;8.326;2022-09-09T06:33:05;7.10;;;1.60;;
5483;SDS011;2764;48.794;8.326;2022-09-09T06:34:07;3.60;;;1.43;;
5483;SDS011;2764;48.794;8.326;2022-09-09T06:35:12;3.23;;;1.23;;
5483;SDS011;2764;48.794;8.326;2022-09-09T06:36:17;4.20;;;1.10;;
5483;SDS011;2764;48.794;8.326;2022-09-09T06:37:25;5.57;;;1.70;;
5483;SDS011;2764;48.794;8.326;2022-09-09T06:38:28;3.13;;;1.10;;
5483;SDS011;2764;48.794;8.326;2022-09-09T06:39:30;5.70;;;1.40;;
5483;SDS011;2764;48.794;8.326;2022-09-09T06:40:34;7.60;;;1.40;;
5483;SDS011;2764;48.794;8.326;2022-09-09T06:41:37;5.27;;;1.30;;
5483;SDS011;2764;48.794;8.326;2022-09-09T06:42:40;1.43;;;1.30;;
5483;SDS011;2764;48.794;8.326;2022-09-09T06:43:41;2.13;;;1.20;;
5483;SDS011;2764;48.794;8.326;2022-09-09T06:44:48;1.60;;;0.80;;
5483;SDS011;2764;48.794;8.326;2022-09-09T06:45:54;3.43;;;1.40;;
5483;SDS011;2764;48.794;8.326;2022-09-09T06:46:57;8.13;;;1.30;;
5483;SDS011;2764;48.794;8.326;2022-09-09T06:47:58;4.97;;;1.60;;
5483;SDS011;2764;48.794;8.326;2022-09-09T06:49:01;5.13;;;1.40;;
5483;SDS011;2764;48.794;8.326;2022-09-09T06:50:03;3.47;;;1.17;;
5483;SDS011;2764;48.794;8.326;2022-09-09T06:51:07;6.43;;;1.60;;
5483;SDS011;2764;48.794;8.326;2022-09-09T06:52:15;4.73;;;1.30;;
5483;SDS011;2764;48.794;8.326;2022-09-09T06:53:19;3.47;;;1.37;;
5483;SDS011;2764;48.794;8.326;2022-09-09T06:54:23;2.70;;;1.50;;
5483;SDS011;2764;48.794;8.326;2022-09-09T06:55:26;1.93;;;1.27;;
5483;SDS011;2764;48.794;8.326;2022-09-09T06:56:29;2.90;;;1.03;;
5483;SDS011;2764;48.794;8.326;2022-09-09T06:57:32;4.53;;;1.77;;
5483;SDS011;2764;48.794;8.326;2022-09-09T06:58:39;2.30;;;1.40;;
5483;SDS011;2764;48.794;8.326;2022-09-09T06:59:44;3.90;;;0.93;;
5483;SDS011;2764;48.794;8.326;2022-09-09T07:00:46;2.37;;;0.90;;
5483;SDS011;2764;48.794;8.326;2022-09-09T07:01:48;4.00;;;1.10;;
5483;SDS011;2764;48.794;8.326;2022-09-09T07:02:55;1.53;;;1.17;;
5483;SDS011;2764;48.794;8.326;2022-09-09T07:04:00;2.80;;;1.13;;
5483;SDS011;2764;48.794;8.326;2022-09-09T07:05:03;5.10;;;1.20;;
5483;SDS011;2764;48.794;8.326;2022-09-09T07:06:05;1.37;;;1.13;;
5483;SDS011;2764;48.794;8.326;2022-09-09T07:07:09;1.23;;;1.13;;
5483;SDS011;2764;48.794;8.326;2022-09-09T07:08:13;2.80;;;1.27;;
5483;SDS011;2764;48.794;8.326;2022-09-09T07:09:16;3.53;;;1.30;;
5483;SDS011;2764;48.794;8.326;2022-09-09T07:10:20;6.03;;;1.40;;
5483;SDS011;2764;48.794;8.326;2022-09-09T07:11:22;4.50;;;1.33;;
5483;SDS011;2764;48.794;8.326;2022-09-09T07:12:28;3.40;;;1.40;;
5483;SDS011;2764;48.794;8.326;2022-09-09T07:13:30;5.73;;;1.43;;
5483;SDS011;2764;48.794;8.326;2022-09-09T07:14:32;5.90;;;1.20;;
5483;SDS011;2764;48.794;8.326;2022-09-09T07:15:35;3.43;;;1.00;;
5483;SDS011;2764;48.794;8.326;2022-09-09T07:16:37;5.60;;;1.83;;
5483;SDS011;2764;48.794;8.326;2022-09-09T07:17:40;4.47;;;1.33;;
5483;SDS011;2764;48.794;8.326;2022-09-09T07:18:43;2.00;;;1.03;;
5483;SDS011;2764;48.794;8.326;2022-09-09T07:19:45;1.43;;;0.77;;
5483;SDS011;2764;48.794;8.326;2022-09-09T07:20:53;1.00;;;0.80;;
5483;SDS011;2764;48.794;8.326;2022-09-09T07:21:59;1.63;;;0.80;;
5483;SDS011;2764;48.794;8.326;2022-09-09T07:23:01;2.23;;;0.97;;